createdAt,value
2023-03-28T00:00:04.786Z,1
2023-03-28T00:01:13.098Z,1
2023-03-28T00:02:21.617Z,1.1
2023-03-28T00:03:29.969Z,1.1
2023-03-28T00:04:38.252Z,1.1
2023-03-28T00:05:46.835Z,1.4
2023-03-28T00:06:55.129Z,1.4
2023-03-28T00:08:03.433Z,1.4
2023-03-28T00:09:11.959Z,1.5
2023-03-28T00:10:20.332Z,1.5
2023-03-28T00:11:28.621Z,1.5
2023-03-28T00:12:37.153Z,1.3
2023-03-28T00:13:45.469Z,1.3
2023-03-28T00:14:53.790Z,1.3
2023-03-28T00:16:02.534Z,1.1
2023-03-28T00:17:10.637Z,1.1
2023-03-28T00:18:18.944Z,1.1
2023-03-28T00:19:27.485Z,1.2
2023-03-28T00:20:35.798Z,1.2
2023-03-28T00:21:44.111Z,1.2
2023-03-28T00:22:52.637Z,1.3
2023-03-28T00:24:00.961Z,1.3
2023-03-28T00:25:09.279Z,1.3
2023-03-28T00:26:17.868Z,1.2
2023-03-28T00:27:26.112Z,1.2
2023-03-28T00:28:34.432Z,1.2
2023-03-28T00:29:42.955Z,1.2
2023-03-28T00:30:51.291Z,1.2
2023-03-28T00:31:59.572Z,1.2
2023-03-28T00:33:08.150Z,1.2
2023-03-28T00:34:16.427Z,1.2
2023-03-28T00:35:24.767Z,1.2
2023-03-28T00:36:33.262Z,1.9
2023-03-28T00:37:41.574Z,1.9
2023-03-28T00:38:49.891Z,1.9
2023-03-28T00:39:58.409Z,1.3
2023-03-28T00:41:06.727Z,1.3
2023-03-28T00:42:15.066Z,1.3
2023-03-28T00:43:23.551Z,1.3
2023-03-28T00:44:31.866Z,1.3
2023-03-28T00:45:40.182Z,1.3
2023-03-28T00:46:48.758Z,1.5
2023-03-28T00:47:57.034Z,1.5
2023-03-28T00:49:05.336Z,1.5
2023-03-28T00:50:13.858Z,0.9
2023-03-28T00:51:22.177Z,0.9
2023-03-28T00:52:30.496Z,0.9
2023-03-28T00:53:39.011Z,1.3
2023-03-28T00:54:47.326Z,1.3
2023-03-28T00:55:55.648Z,1.3
2023-03-28T00:57:04.174Z,1.5
2023-03-28T00:58:12.523Z,1.5
2023-03-28T00:59:20.793Z,1.5
2023-03-28T01:00:29.300Z,1
2023-03-28T01:01:37.664Z,1
2023-03-28T01:02:46.001Z,1
2023-03-28T01:03:54.458Z,1.1
2023-03-28T01:05:02.798Z,1.1
2023-03-28T01:06:11.077Z,1.1
2023-03-28T01:07:19.599Z,1.4
2023-03-28T01:08:27.912Z,1.4
2023-03-28T01:09:36.224Z,1.4
2023-03-28T01:10:44.742Z,1.1
2023-03-28T01:11:53.063Z,1.1
2023-03-28T01:13:01.365Z,1.1
2023-03-28T01:14:09.906Z,1.4
2023-03-28T01:15:18.201Z,1.4
2023-03-28T01:16:26.532Z,1.4
2023-03-28T01:17:35.034Z,1.5
2023-03-28T01:18:43.329Z,1.5
2023-03-28T01:19:51.628Z,1.5
2023-03-28T01:21:00.154Z,1.3
2023-03-28T01:22:08.477Z,1.3
2023-03-28T01:23:16.789Z,1.3
2023-03-28T01:24:25.310Z,1.1
2023-03-28T01:25:33.628Z,1.1
2023-03-28T01:26:41.951Z,1.1
2023-03-28T01:27:50.473Z,1.2
2023-03-28T01:28:58.796Z,1.2
2023-03-28T01:30:07.130Z,1.2
2023-03-28T01:31:15.653Z,1.2
2023-03-28T01:32:23.970Z,1.2
2023-03-28T01:33:32.252Z,1.2
2023-03-28T01:34:40.758Z,1.2
2023-03-28T01:35:49.097Z,1.2
2023-03-28T01:36:57.387Z,1.2
2023-03-28T01:38:05.904Z,1.4
2023-03-28T01:39:14.216Z,1.4
2023-03-28T01:40:22.533Z,1.4
2023-03-28T01:41:31.051Z,1.4
2023-03-28T01:42:39.358Z,1.4
2023-03-28T01:43:47.679Z,1.4
2023-03-28T01:44:56.201Z,1.4
2023-03-28T01:46:04.569Z,1.4
2023-03-28T01:47:12.829Z,1.4
2023-03-28T01:48:21.347Z,1.4
2023-03-28T01:49:29.668Z,1.4
2023-03-28T01:50:39.795Z,1.4
2023-03-28T01:51:48.325Z,1.3
2023-03-28T01:52:56.642Z,1.3
2023-03-28T01:54:04.952Z,1.3
2023-03-28T01:55:13.472Z,1.3
2023-03-28T01:56:21.798Z,1.3
2023-03-28T01:57:30.159Z,1.3
2023-03-28T01:58:38.622Z,1.5
2023-03-28T01:59:46.936Z,1.5
2023-03-28T02:00:55.273Z,1.5
2023-03-28T02:02:03.852Z,1.3
2023-03-28T02:03:12.180Z,1.3
2023-03-28T02:04:21.266Z,1.3
2023-03-28T02:05:28.939Z,1.9
2023-03-28T02:06:37.261Z,1.9
2023-03-28T02:07:45.587Z,1.9
2023-03-28T02:08:54.091Z,1.3
2023-03-28T02:10:02.403Z,1.3
2023-03-28T02:11:10.714Z,1.3
2023-03-28T02:12:19.237Z,1.3
2023-03-28T02:13:27.561Z,1.3
2023-03-28T02:14:35.872Z,1.3
2023-03-28T02:15:49.451Z,1.4
2023-03-28T02:16:58.115Z,1.4
2023-03-28T02:18:06.493Z,1.4
2023-03-28T02:19:14.964Z,1.3
2023-03-28T02:20:23.271Z,1.3
2023-03-28T02:21:31.573Z,1.3
2023-03-28T02:22:40.091Z,1.4
2023-03-28T02:23:48.397Z,1.4
2023-03-28T02:24:56.712Z,1.4
2023-03-28T02:26:05.250Z,1.6
2023-03-28T02:27:13.580Z,1.6
2023-03-28T02:28:21.871Z,1.6
2023-03-28T02:29:30.384Z,1.5
2023-03-28T02:30:38.698Z,1.5
2023-03-28T02:31:47.034Z,1.5
2023-03-28T02:32:55.615Z,1.5
2023-03-28T02:34:03.883Z,1.5
2023-03-28T02:35:12.173Z,1.5
2023-03-28T02:36:20.709Z,1.5
2023-03-28T02:37:29.037Z,1.5
2023-03-28T02:38:37.372Z,1.5
2023-03-28T02:39:45.918Z,1.8
2023-03-28T02:40:54.234Z,1.8
2023-03-28T02:42:02.537Z,1.8
2023-03-28T02:43:11.052Z,1.3
2023-03-28T02:44:20.878Z,1.3
2023-03-28T02:45:27.678Z,1.3
2023-03-28T02:46:36.234Z,1.2
2023-03-28T02:47:44.531Z,1.2
2023-03-28T02:48:52.840Z,1.2
2023-03-28T02:50:01.381Z,1.9
2023-03-28T02:51:09.681Z,1.9
2023-03-28T02:52:17.982Z,1.9
2023-03-28T02:53:26.496Z,1.7
2023-03-28T02:54:34.811Z,1.7
2023-03-28T02:55:43.141Z,1.7
2023-03-28T02:56:51.683Z,1.4
2023-03-28T02:57:59.980Z,1.4
2023-03-28T02:59:08.289Z,1.4
2023-03-28T03:00:16.812Z,1.5
2023-03-28T03:01:25.159Z,1.5
2023-03-28T03:02:33.453Z,1.5
2023-03-28T03:03:41.988Z,1.6
2023-03-28T03:04:50.288Z,1.6
2023-03-28T03:05:58.843Z,1.6
2023-03-28T03:07:07.109Z,1.5
2023-03-28T03:08:15.410Z,1.5
2023-03-28T03:09:23.712Z,1.5
2023-03-28T03:10:32.257Z,1.9
2023-03-28T03:11:40.584Z,1.9
2023-03-28T03:12:48.896Z,1.9
2023-03-28T03:13:57.427Z,1.2
2023-03-28T03:15:05.718Z,1.2
2023-03-28T03:16:14.108Z,1.2
2023-03-28T03:17:22.573Z,1.2
2023-03-28T03:18:30.900Z,1.2
2023-03-28T03:19:39.469Z,1.2
2023-03-28T03:20:47.718Z,1.4
2023-03-28T03:21:56.065Z,1.4
2023-03-28T03:23:04.351Z,1.4
2023-03-28T03:24:12.867Z,1.2
2023-03-28T03:25:21.177Z,1.2
2023-03-28T03:26:29.492Z,1.2
2023-03-28T03:27:38.003Z,1.9
2023-03-28T03:28:46.318Z,1.9
2023-03-28T03:29:54.635Z,1.9
2023-03-28T03:31:03.199Z,2.1
2023-03-28T03:32:11.476Z,2.1
2023-03-28T03:33:19.780Z,2.1
2023-03-28T03:34:28.315Z,1.7
2023-03-28T03:35:36.651Z,1.7
2023-03-28T03:36:44.949Z,1.7
2023-03-28T03:37:53.483Z,1.5
2023-03-28T03:39:01.760Z,1.5
2023-03-28T03:40:10.099Z,1.5
2023-03-28T03:41:18.595Z,1.6
2023-03-28T03:42:26.922Z,1.6
2023-03-28T03:43:35.250Z,1.6
2023-03-28T03:44:43.779Z,1.1
2023-03-28T03:45:52.116Z,1.1
2023-03-28T03:47:00.416Z,1.1
2023-03-28T03:48:08.962Z,1.5
2023-03-28T03:49:17.258Z,1.5
2023-03-28T03:50:25.583Z,1.5
2023-03-28T03:51:34.133Z,1.2
2023-03-28T03:52:42.445Z,1.2
2023-03-28T03:53:50.895Z,1.2
2023-03-28T03:54:59.405Z,1.5
2023-03-28T03:56:07.834Z,1.5
2023-03-28T03:57:16.231Z,1.5
2023-03-28T03:58:24.735Z,1.5
2023-03-28T03:59:33.064Z,1.5
2023-03-28T04:00:41.379Z,1.5
2023-03-28T04:01:49.905Z,1.6
2023-03-28T04:02:58.290Z,1.6
2023-03-28T04:04:06.550Z,1.6
2023-03-28T04:05:15.038Z,1.4
2023-03-28T04:06:23.370Z,1.4
2023-03-28T04:07:31.688Z,1.4
2023-03-28T04:08:40.205Z,1
2023-03-28T04:09:48.571Z,1
2023-03-28T04:10:56.860Z,1
2023-03-28T04:12:05.384Z,1.4
2023-03-28T04:13:13.690Z,1.4
2023-03-28T04:14:22.007Z,1.4
2023-03-28T04:15:30.536Z,1.6
2023-03-28T04:16:40.205Z,1.6
2023-03-28T04:17:47.228Z,1.6
2023-03-28T04:18:55.708Z,1.6
2023-03-28T04:20:04.023Z,1.6
2023-03-28T04:21:12.373Z,1.6
2023-03-28T04:22:20.899Z,1.3
2023-03-28T04:23:29.221Z,1.3
2023-03-28T04:24:37.534Z,1.3
2023-03-28T04:25:46.074Z,1.6
2023-03-28T04:26:54.383Z,1.6
2023-03-28T04:28:02.705Z,1.6
2023-03-28T04:29:11.219Z,1.6
2023-03-28T04:30:19.534Z,1.6
2023-03-28T04:31:27.866Z,1.6
2023-03-28T04:32:36.404Z,1.5
2023-03-28T04:33:44.708Z,1.5
2023-03-28T04:34:53.027Z,1.5
2023-03-28T04:36:01.750Z,1.6
2023-03-28T04:37:09.867Z,1.6
2023-03-28T04:38:20.303Z,1.6
2023-03-28T04:39:26.710Z,1.1
2023-03-28T04:40:35.025Z,1.1
2023-03-28T04:41:43.424Z,1.1
2023-03-28T04:42:51.855Z,1.7
2023-03-28T04:44:00.171Z,1.7
2023-03-28T04:45:08.494Z,1.7
2023-03-28T04:46:17.088Z,1.8
2023-03-28T04:47:25.396Z,1.8
2023-03-28T04:48:33.669Z,1.8
2023-03-28T04:49:42.200Z,1.4
2023-03-28T04:50:50.509Z,1.4
2023-03-28T04:51:58.927Z,1.4
2023-03-28T04:53:07.442Z,1.2
2023-03-28T04:54:15.761Z,1.2
2023-03-28T04:55:24.100Z,1.2
2023-03-28T04:56:32.618Z,1.4
2023-03-28T04:57:40.947Z,1.4
2023-03-28T04:58:49.231Z,1.4
2023-03-28T04:59:57.749Z,1.2
2023-03-28T05:01:06.084Z,1.2
2023-03-28T05:02:14.425Z,1.2
2023-03-28T05:03:23.046Z,1.7
2023-03-28T05:04:31.211Z,1.7
2023-03-28T05:05:39.517Z,1.7
2023-03-28T05:06:48.048Z,1.4
2023-03-28T05:07:56.361Z,1.4
2023-03-28T05:09:04.686Z,1.4
2023-03-28T05:10:14.239Z,1.6
2023-03-28T05:11:21.512Z,1.6
2023-03-28T05:12:29.822Z,1.6
2023-03-28T05:13:38.380Z,1.5
2023-03-28T05:14:46.651Z,1.5
2023-03-28T05:15:55.025Z,1.5
2023-03-28T05:17:03.496Z,8.8
2023-03-28T05:18:11.840Z,8.8
2023-03-28T05:19:20.156Z,8.8
2023-03-28T05:20:28.673Z,14.2
2023-03-28T05:21:36.999Z,14.2
2023-03-28T05:22:45.313Z,14.2
2023-03-28T05:23:53.850Z,10.2
2023-03-28T05:25:02.157Z,10.2
2023-03-28T05:26:10.489Z,10.2
2023-03-28T05:27:19.012Z,3
2023-03-28T05:28:27.327Z,3
2023-03-28T05:29:35.658Z,3
2023-03-28T05:30:44.186Z,9
2023-03-28T05:31:52.515Z,9
2023-03-28T05:33:00.878Z,9
2023-03-28T05:34:09.400Z,4.7
2023-03-28T05:35:17.718Z,4.7
2023-03-28T05:36:26.029Z,4.7
2023-03-28T05:37:34.584Z,3.1
2023-03-28T05:38:42.898Z,3.1
2023-03-28T05:39:51.238Z,3.1
2023-03-28T05:40:59.892Z,2.5
2023-03-28T05:42:08.053Z,2.5
2023-03-28T05:43:16.358Z,2.5
2023-03-28T05:44:24.894Z,2.3
2023-03-28T05:45:33.294Z,2.3
2023-03-28T05:46:41.547Z,2.3
2023-03-28T05:47:50.088Z,2.3
2023-03-28T05:48:58.371Z,2.3
2023-03-28T05:50:06.720Z,2.3
2023-03-28T05:51:15.263Z,1.8
2023-03-28T05:52:23.589Z,1.8
2023-03-28T05:53:31.920Z,1.8
2023-03-28T05:54:40.464Z,1.9
2023-03-28T05:55:48.779Z,1.9
2023-03-28T05:56:57.159Z,1.9
2023-03-28T05:58:05.633Z,3
2023-03-28T05:59:13.974Z,3
2023-03-28T06:00:22.295Z,3
2023-03-28T06:01:30.843Z,4.5
2023-03-28T06:02:39.175Z,4.5
2023-03-28T06:03:47.534Z,4.5
2023-03-28T06:04:56.005Z,2.4
2023-03-28T06:06:04.321Z,2.4
2023-03-28T06:07:12.635Z,2.4
2023-03-28T06:08:21.168Z,2.7
2023-03-28T06:09:29.489Z,2.7
2023-03-28T06:10:37.825Z,2.7
2023-03-28T06:11:46.346Z,1.9
2023-03-28T06:12:54.669Z,1.9
2023-03-28T06:14:02.968Z,1.9
2023-03-28T06:15:11.506Z,2.1
2023-03-28T06:16:19.884Z,2.1
2023-03-28T06:17:28.195Z,2.1
2023-03-28T06:18:36.692Z,2.4
2023-03-28T06:19:45.034Z,2.4
2023-03-28T06:20:53.317Z,2.4
2023-03-28T06:22:02.779Z,2.8
2023-03-28T06:23:10.167Z,2.8
2023-03-28T06:24:18.480Z,2.8
2023-03-28T06:25:27.006Z,2.6
2023-03-28T06:26:35.336Z,2.6
2023-03-28T06:27:43.652Z,2.6
2023-03-28T06:28:52.179Z,2.8
2023-03-28T06:30:00.501Z,2.8
2023-03-28T06:31:08.860Z,2.8
2023-03-28T06:32:17.353Z,2.2
2023-03-28T06:33:25.692Z,2.2
2023-03-28T06:34:34.045Z,2.2
2023-03-28T06:35:42.526Z,3.9
2023-03-28T06:36:50.819Z,3.9
2023-03-28T06:37:59.146Z,3.9
2023-03-28T06:39:07.674Z,3.1
2023-03-28T06:40:15.964Z,3.1
2023-03-28T06:41:24.292Z,3.1
2023-03-28T06:42:32.824Z,9.1
2023-03-28T06:43:41.153Z,9.1
2023-03-28T06:44:49.466Z,9.1
2023-03-28T06:45:58.031Z,8.8
2023-03-28T06:47:06.309Z,8.8
2023-03-28T06:48:14.633Z,8.8
2023-03-28T06:49:23.170Z,2.2
2023-03-28T06:50:31.451Z,2.2
2023-03-28T06:51:39.812Z,2.2
2023-03-28T06:52:48.348Z,2.4
2023-03-28T06:53:56.666Z,2.4
2023-03-28T06:55:05.000Z,2.4
2023-03-28T06:56:13.543Z,6.7
2023-03-28T06:57:21.909Z,6.7
2023-03-28T06:58:30.194Z,6.7
2023-03-28T06:59:38.719Z,3.3
2023-03-28T07:00:47.045Z,3.3
2023-03-28T07:01:55.400Z,3.3
2023-03-28T07:03:04.037Z,2.6
2023-03-28T07:04:12.242Z,2.6
2023-03-28T07:05:20.611Z,2.6
2023-03-28T07:06:29.109Z,2.1
2023-03-28T07:07:37.515Z,2.1
2023-03-28T07:08:45.852Z,2.1
2023-03-28T07:09:54.401Z,1.7
2023-03-28T07:11:02.997Z,1.7
2023-03-28T07:12:11.190Z,1.7
2023-03-28T07:13:19.721Z,1.9
2023-03-28T07:14:28.033Z,1.9
2023-03-28T07:15:36.351Z,1.9
2023-03-28T07:16:44.935Z,2.1
2023-03-28T07:17:53.234Z,2.1
2023-03-28T07:19:01.737Z,2.1
2023-03-28T07:20:10.249Z,1.8
2023-03-28T07:21:18.627Z,1.8
2023-03-28T07:22:26.899Z,1.8
2023-03-28T07:23:35.407Z,2
2023-03-28T07:24:43.722Z,2
2023-03-28T07:25:52.051Z,2
2023-03-28T07:27:12.175Z,2.2
2023-03-28T07:28:08.940Z,2.2
2023-03-28T07:29:17.248Z,2.2
2023-03-28T07:30:25.784Z,6.4
2023-03-28T07:31:34.122Z,6.4
2023-03-28T07:32:52.397Z,6.4
2023-03-28T07:33:51.010Z,10.1
2023-03-28T07:34:59.305Z,10.1
2023-03-28T07:36:07.666Z,10.1
2023-03-28T07:37:16.203Z,6.8
2023-03-28T07:38:24.517Z,6.8
2023-03-28T07:39:32.848Z,6.8
2023-03-28T07:40:41.506Z,3.3
2023-03-28T07:41:49.818Z,3.3
2023-03-28T07:42:58.153Z,3.3
2023-03-28T07:44:06.692Z,2.9
2023-03-28T07:45:15.030Z,2.9
2023-03-28T07:46:23.419Z,2.9
2023-03-28T07:47:31.931Z,2.4
2023-03-28T07:48:40.207Z,2.4
2023-03-28T07:49:48.529Z,2.4
2023-03-28T07:50:57.135Z,3.4
2023-03-28T07:52:05.403Z,3.4
2023-03-28T07:53:13.746Z,3.4
2023-03-28T07:54:22.251Z,5.3
2023-03-28T07:55:30.593Z,5.3
2023-03-28T07:56:40.194Z,5.3
2023-03-28T07:57:47.432Z,15.4
2023-03-28T07:58:55.758Z,15.4
2023-03-28T08:00:04.078Z,15.4
2023-03-28T08:01:12.639Z,4.1
2023-03-28T08:02:20.970Z,4.1
2023-03-28T08:03:29.353Z,4.1
2023-03-28T08:04:37.763Z,9.4
2023-03-28T08:05:46.133Z,9.4
2023-03-28T08:06:54.397Z,9.4
2023-03-28T08:08:02.920Z,4.4
2023-03-28T08:09:11.255Z,4.4
2023-03-28T08:10:19.545Z,4.4
2023-03-28T08:11:28.065Z,2.5
2023-03-28T08:12:36.380Z,2.5
2023-03-28T08:13:44.686Z,2.5
2023-03-28T08:14:53.346Z,2
2023-03-28T08:16:01.695Z,2
2023-03-28T08:17:09.993Z,2
2023-03-28T08:18:18.518Z,5.9
2023-03-28T08:19:26.898Z,5.9
2023-03-28T08:20:35.196Z,5.9
2023-03-28T08:21:43.718Z,2.3
2023-03-28T08:22:52.044Z,2.3
2023-03-28T08:24:00.353Z,2.3
2023-03-28T08:25:08.912Z,10.5
2023-03-28T08:26:17.199Z,10.5
2023-03-28T08:27:25.506Z,10.5
2023-03-28T08:28:34.034Z,5.2
2023-03-28T08:29:42.349Z,5.2
2023-03-28T08:30:50.685Z,5.2
2023-03-28T08:31:59.220Z,2.5
2023-03-28T08:33:07.577Z,2.5
2023-03-28T08:34:15.856Z,2.5
2023-03-28T08:35:24.396Z,1.8
2023-03-28T08:36:32.727Z,1.8
2023-03-28T08:37:41.056Z,1.8
2023-03-28T08:38:49.587Z,1.5
2023-03-28T08:39:57.895Z,1.5
2023-03-28T08:41:06.244Z,1.5
2023-03-28T08:42:14.746Z,1.8
2023-03-28T08:43:23.078Z,1.8
2023-03-28T08:44:31.394Z,1.8
2023-03-28T08:45:39.913Z,3.4
2023-03-28T08:46:48.304Z,3.4
2023-03-28T08:47:56.641Z,3.4
2023-03-28T08:49:05.130Z,2.1
2023-03-28T08:50:13.558Z,2.1
2023-03-28T08:51:21.800Z,2.1
2023-03-28T08:52:30.322Z,2.1
2023-03-28T08:53:38.648Z,2.1
2023-03-28T08:54:46.957Z,2.1
2023-03-28T08:55:55.507Z,2
2023-03-28T08:57:03.880Z,2
2023-03-28T08:58:12.165Z,2
2023-03-28T08:59:20.700Z,2.1
2023-03-28T09:00:29.030Z,2.1
2023-03-28T09:01:37.379Z,2.1
2023-03-28T09:02:46.017Z,1.8
2023-03-28T09:03:54.365Z,1.8
2023-03-28T09:05:12.369Z,1.8
2023-03-28T09:06:11.079Z,1.8
2023-03-28T09:07:19.379Z,1.8
2023-03-28T09:08:27.734Z,1.8
2023-03-28T09:09:36.245Z,1.7
2023-03-28T09:10:44.571Z,1.7
2023-03-28T09:11:52.883Z,1.7
2023-03-28T09:13:01.453Z,1.8
2023-03-28T09:14:09.753Z,1.8
2023-03-28T09:15:18.074Z,1.8
2023-03-28T09:16:26.696Z,1.8
2023-03-28T09:17:34.937Z,1.8
2023-03-28T09:18:43.258Z,1.8
2023-03-28T09:19:51.781Z,1.6
2023-03-28T09:21:00.473Z,1.6
2023-03-28T09:22:15.047Z,1.6
2023-03-28T09:23:16.963Z,1.4
2023-03-28T09:24:25.294Z,1.4
2023-03-28T09:25:33.622Z,1.4
2023-03-28T09:26:42.167Z,1.9
2023-03-28T09:27:50.567Z,1.9
2023-03-28T09:28:58.821Z,1.9
2023-03-28T09:30:07.325Z,1.4
2023-03-28T09:31:15.655Z,1.4
2023-03-28T09:32:24.043Z,1.4
2023-03-28T09:33:32.519Z,1.3
2023-03-28T09:34:40.841Z,1.3
2023-03-28T09:35:49.180Z,1.3
2023-03-28T09:36:57.707Z,1.9
2023-03-28T09:38:06.023Z,1.9
2023-03-28T09:39:14.356Z,1.9
2023-03-28T09:40:22.882Z,1.4
2023-03-28T09:41:31.209Z,1.4
2023-03-28T09:42:39.520Z,1.4
2023-03-28T09:43:48.049Z,1.3
2023-03-28T09:44:56.381Z,1.3
2023-03-28T09:46:04.715Z,1.3
2023-03-28T09:47:13.225Z,1.5
2023-03-28T09:48:21.572Z,1.5
2023-03-28T09:49:29.874Z,1.5
2023-03-28T09:50:38.398Z,1.7
2023-03-28T09:51:46.743Z,1.7
2023-03-28T09:52:55.033Z,1.7
2023-03-28T09:54:03.555Z,1.5
2023-03-28T09:55:11.877Z,1.5
2023-03-28T09:56:20.195Z,1.5
2023-03-28T09:57:28.710Z,1.6
2023-03-28T09:58:37.034Z,1.6
2023-03-28T09:59:45.352Z,1.6
2023-03-28T10:00:53.928Z,1.4
2023-03-28T10:02:02.266Z,1.4
2023-03-28T10:03:10.574Z,1.4
2023-03-28T10:04:19.107Z,1.4
2023-03-28T10:05:27.376Z,1.4
2023-03-28T10:06:35.719Z,1.4
2023-03-28T10:07:44.245Z,1.8
2023-03-28T10:08:52.587Z,1.8
2023-03-28T10:10:00.902Z,1.8
2023-03-28T10:11:09.438Z,1.7
2023-03-28T10:12:17.739Z,1.7
2023-03-28T10:13:26.097Z,1.7
2023-03-28T10:14:34.628Z,1.6
2023-03-28T10:15:43.018Z,1.6
2023-03-28T10:16:51.368Z,1.6
2023-03-28T10:17:59.889Z,1.9
2023-03-28T10:19:08.184Z,1.9
2023-03-28T10:20:16.639Z,1.9
2023-03-28T10:21:25.031Z,2.2
2023-03-28T10:22:33.351Z,2.2
2023-03-28T10:23:41.686Z,2.2
2023-03-28T10:24:50.211Z,1.7
2023-03-28T10:25:58.920Z,1.7
2023-03-28T10:27:07.238Z,1.7
2023-03-28T10:28:15.764Z,1.1
2023-03-28T10:29:24.087Z,1.1
2023-03-28T10:30:32.401Z,1.1
2023-03-28T10:31:40.953Z,1.4
2023-03-28T10:32:49.314Z,1.4
2023-03-28T10:33:57.577Z,1.4
2023-03-28T10:35:06.107Z,1.1
2023-03-28T10:36:14.491Z,1.1
2023-03-28T10:37:22.761Z,1.1
2023-03-28T10:38:31.281Z,1.3
2023-03-28T10:39:39.595Z,1.3
2023-03-28T10:40:47.943Z,1.3
2023-03-28T10:41:56.425Z,1.5
2023-03-28T10:43:04.732Z,1.5
2023-03-28T10:44:13.042Z,1.5
2023-03-28T10:45:21.567Z,1.3
2023-03-28T10:46:29.917Z,1.3
2023-03-28T10:47:38.225Z,1.3
2023-03-28T10:48:46.773Z,0.9
2023-03-28T10:49:55.072Z,0.9
2023-03-28T10:51:03.386Z,0.9
2023-03-28T10:52:11.909Z,1.5
2023-03-28T10:53:20.227Z,1.5
2023-03-28T10:54:28.544Z,1.5
2023-03-28T10:55:37.062Z,1.4
2023-03-28T10:56:45.393Z,1.4
2023-03-28T10:57:53.700Z,1.4
2023-03-28T10:59:02.225Z,1.9
2023-03-28T11:00:10.550Z,1.9
2023-03-28T11:01:18.889Z,1.9
2023-03-28T11:02:27.677Z,1.1
2023-03-28T11:03:35.943Z,1.1
2023-03-28T11:04:44.285Z,1.1
2023-03-28T11:06:06.211Z,1.3
2023-03-28T11:07:01.037Z,1.3
2023-03-28T11:08:09.348Z,1.3
2023-03-28T11:09:17.877Z,1.2
2023-03-28T11:10:26.203Z,1.2
2023-03-28T11:11:34.534Z,1.2
2023-03-28T11:12:53.892Z,1.3
2023-03-28T11:13:51.379Z,1.3
2023-03-28T11:14:59.708Z,1.3
2023-03-28T11:16:08.259Z,1.5
2023-03-28T11:17:16.572Z,1.5
2023-03-28T11:18:24.892Z,1.5
2023-03-28T11:19:33.401Z,1.2
2023-03-28T11:20:41.738Z,1.2
2023-03-28T11:21:50.035Z,1.2
2023-03-28T11:23:05.450Z,1.4
2023-03-28T11:24:06.884Z,1.4
2023-03-28T11:25:15.205Z,1.4
2023-03-28T11:26:23.734Z,1.1
2023-03-28T11:27:32.052Z,1.1
2023-03-28T11:28:40.376Z,1.1
2023-03-28T11:29:48.893Z,1
2023-03-28T11:30:57.319Z,1
2023-03-28T11:32:05.548Z,1
2023-03-28T11:33:14.072Z,1.1
2023-03-28T11:34:22.390Z,1.1
2023-03-28T11:35:30.724Z,1.1
2023-03-28T11:36:39.288Z,1.2
2023-03-28T11:37:47.655Z,1.2
2023-03-28T11:38:55.981Z,1.2
2023-03-28T11:40:06.503Z,0.8
2023-03-28T11:41:12.880Z,0.8
2023-03-28T11:42:21.194Z,0.8
2023-03-28T11:43:29.711Z,1.1
2023-03-28T11:44:38.036Z,1.1
2023-03-28T11:45:51.798Z,1.1
2023-03-28T11:46:55.107Z,1
2023-03-28T11:48:03.286Z,1
2023-03-28T11:49:11.510Z,1
2023-03-28T11:50:20.058Z,1
2023-03-28T11:51:28.705Z,1
2023-03-28T11:52:37.067Z,1
2023-03-28T11:53:45.535Z,1
2023-03-28T11:54:53.857Z,1
2023-03-28T11:56:02.264Z,1
2023-03-28T11:57:10.721Z,1
2023-03-28T11:58:19.025Z,1
2023-03-28T11:59:27.347Z,1
2023-03-28T12:00:36.134Z,1.4
2023-03-28T12:01:44.402Z,1.4
2023-03-28T12:02:53.033Z,1.4
2023-03-28T12:04:01.524Z,1.4
2023-03-28T12:05:09.646Z,1.4
2023-03-28T12:06:17.986Z,1.4
2023-03-28T12:07:26.510Z,1.4
2023-03-28T12:08:34.879Z,1.4
2023-03-28T12:09:43.166Z,1.4
2023-03-28T12:10:51.685Z,1.1
2023-03-28T12:12:00.016Z,1.1
2023-03-28T12:13:08.317Z,1.1
2023-03-28T12:14:16.844Z,1.3
2023-03-28T12:15:25.163Z,1.3
2023-03-28T12:16:33.509Z,1.3
2023-03-28T12:17:42.071Z,1.6
2023-03-28T12:18:50.362Z,1.6
2023-03-28T12:19:58.679Z,1.6
2023-03-28T12:21:07.220Z,1.3
2023-03-28T12:22:15.561Z,1.3
2023-03-28T12:23:23.880Z,1.3
2023-03-28T12:24:32.495Z,1.2
2023-03-28T12:25:40.723Z,1.2
2023-03-28T12:26:49.048Z,1.2
2023-03-28T12:27:57.590Z,1.5
2023-03-28T12:29:05.880Z,1.5
2023-03-28T12:30:14.200Z,1.5
2023-03-28T12:31:22.816Z,1.2
2023-03-28T12:33:39.381Z,1.2
2023-03-28T12:34:47.902Z,1.4
2023-03-28T12:35:56.274Z,1.4
2023-03-28T12:37:04.552Z,1.4
2023-03-28T12:38:13.097Z,1.4
2023-03-28T12:39:21.966Z,1.4
2023-03-28T12:40:30.290Z,1.4
2023-03-28T12:41:38.791Z,1.1
2023-03-28T12:42:47.210Z,1.1
2023-03-28T12:43:55.493Z,1.1
2023-03-28T12:45:04.042Z,1.3
2023-03-28T12:46:12.369Z,1.3
2023-03-28T12:47:20.671Z,1.3
2023-03-28T12:48:29.193Z,1.1
2023-03-28T12:49:37.516Z,1.1
2023-03-28T12:50:45.861Z,1.1
2023-03-28T12:51:54.435Z,1.2
2023-03-28T12:53:02.819Z,1.2
2023-03-28T12:54:11.180Z,1.2
2023-03-28T12:55:19.759Z,0.7
2023-03-28T12:56:28.204Z,0.7
2023-03-28T12:57:36.680Z,0.7
2023-03-28T12:58:45.010Z,1.1
2023-03-28T12:59:53.356Z,1.1
2023-03-28T13:01:01.745Z,1.1
2023-03-28T13:02:10.320Z,1.2
2023-03-28T13:03:18.837Z,1.2
2023-03-28T13:04:28.522Z,1.2
2023-03-28T13:05:38.979Z,1.3
2023-03-28T13:06:48.785Z,1.3
2023-03-28T13:07:57.600Z,1.3
2023-03-28T13:09:07.347Z,1
2023-03-28T13:10:18.310Z,1
2023-03-28T13:11:29.603Z,1
2023-03-28T13:12:40.991Z,1.2
2023-03-28T13:13:52.209Z,1.2
2023-03-28T13:15:03.469Z,1.2
2023-03-28T13:16:15.052Z,0.8
2023-03-28T13:17:26.115Z,0.8
2023-03-28T13:18:36.033Z,0.8
2023-03-28T13:19:45.474Z,1.1
2023-03-28T13:20:54.660Z,1.1
2023-03-28T13:22:03.925Z,1.1
2023-03-28T13:23:13.335Z,1
2023-03-28T13:24:22.622Z,1
2023-03-28T13:25:31.797Z,1
2023-03-28T13:26:41.224Z,1.4
2023-03-28T13:27:50.706Z,1.4
2023-03-28T13:29:00.137Z,1.4
2023-03-28T13:30:09.659Z,1.2
2023-03-28T13:31:18.739Z,1.2
2023-03-28T13:32:27.983Z,1.2
2023-03-28T13:33:37.419Z,1.1
2023-03-28T13:34:46.633Z,1.1
2023-03-28T13:35:55.638Z,1.1
2023-03-28T13:37:04.613Z,1
2023-03-28T13:38:13.472Z,1
2023-03-28T13:39:22.330Z,1
2023-03-28T13:40:31.608Z,1
2023-03-28T13:41:40.536Z,1
2023-03-28T13:42:49.491Z,1
2023-03-28T13:43:58.656Z,1
2023-03-28T13:45:07.622Z,1
2023-03-28T13:46:16.944Z,1
2023-03-28T13:47:26.559Z,1
2023-03-28T13:48:35.855Z,1
2023-03-28T13:49:44.948Z,1
2023-03-28T13:50:54.383Z,0.9
2023-03-28T13:52:03.613Z,0.9
2023-03-28T13:53:12.773Z,0.9
2023-03-28T13:54:22.187Z,1
2023-03-28T13:55:31.420Z,1
2023-03-28T13:56:40.714Z,1
2023-03-28T13:57:50.125Z,1
2023-03-28T13:58:59.508Z,1
2023-03-28T14:00:08.779Z,1
2023-03-28T14:01:18.250Z,1.1
2023-03-28T14:02:27.619Z,1.1
2023-03-28T14:03:36.960Z,1.1
2023-03-28T14:04:46.193Z,0.9
2023-03-28T14:05:56.194Z,0.9
2023-03-28T14:07:04.521Z,0.9
2023-03-28T14:08:13.090Z,0.9
2023-03-28T14:09:21.448Z,0.9
2023-03-28T14:10:29.794Z,0.9
2023-03-28T14:11:38.339Z,0.9
2023-03-28T14:12:46.681Z,0.9
2023-03-28T14:13:55.049Z,0.9
2023-03-28T14:15:03.573Z,1.1
2023-03-28T14:16:11.966Z,1.1
2023-03-28T14:17:20.318Z,1.1
2023-03-28T14:18:28.871Z,0.9
2023-03-28T14:19:37.243Z,0.9
2023-03-28T14:20:45.556Z,0.9
2023-03-28T14:21:54.130Z,0.9
2023-03-28T14:23:02.477Z,0.9
2023-03-28T14:24:10.839Z,0.9
2023-03-28T14:25:19.395Z,1
2023-03-28T14:26:27.738Z,1
2023-03-28T14:27:36.131Z,1
2023-03-28T14:28:44.726Z,1.4
2023-03-28T14:29:53.078Z,1.4
2023-03-28T14:31:01.562Z,1.4
2023-03-28T14:32:10.054Z,1.2
2023-03-28T14:33:18.400Z,1.2
2023-03-28T14:34:26.686Z,1.2
2023-03-28T14:35:35.279Z,1
2023-03-28T14:36:43.596Z,1
2023-03-28T14:37:51.978Z,1
2023-03-28T14:39:00.542Z,1.1
2023-03-28T14:40:08.884Z,1.1
2023-03-28T14:41:17.244Z,1.1
2023-03-28T14:42:25.778Z,1.1
2023-03-28T14:43:34.985Z,1.1
2023-03-28T14:44:43.330Z,1.1
2023-03-28T14:45:51.947Z,1.3
2023-03-28T14:47:00.278Z,1.3
2023-03-28T14:48:08.746Z,1.3
2023-03-28T14:49:17.240Z,1.3
2023-03-28T14:50:25.601Z,1.3
2023-03-28T14:51:33.996Z,1.3
2023-03-28T14:52:42.569Z,1.4
2023-03-28T14:53:50.913Z,1.4
2023-03-28T14:54:59.264Z,1.4
2023-03-28T14:56:07.866Z,1.3
2023-03-28T14:57:16.239Z,1.3
2023-03-28T14:58:24.587Z,1.3
2023-03-28T14:59:33.156Z,1.2
2023-03-28T15:00:41.661Z,1.2
2023-03-28T15:01:50.269Z,1.2
2023-03-28T15:02:58.763Z,1.2
2023-03-28T15:04:07.174Z,1.2
2023-03-28T15:05:15.483Z,1.2
2023-03-28T15:06:24.100Z,1
2023-03-28T15:39:08.441Z,0
2023-03-28T15:40:16.762Z,0
2023-03-28T15:41:25.136Z,0
2023-03-28T15:42:33.678Z,1.2
2023-03-28T15:43:42.034Z,1.2
2023-03-28T15:44:50.389Z,1.2
2023-03-28T15:45:58.979Z,1.5
2023-03-28T15:47:07.311Z,1.5
2023-03-28T15:48:15.690Z,1.5
2023-03-28T15:49:24.252Z,1.7
2023-03-28T15:50:32.612Z,1.7
2023-03-28T15:51:41.066Z,1.7
2023-03-28T15:52:49.679Z,1.7
2023-03-28T15:53:58.181Z,1.7
2023-03-28T15:55:06.622Z,1.7
2023-03-28T15:56:15.249Z,2.8
2023-03-28T15:57:23.801Z,2.8
2023-03-28T15:58:32.097Z,2.8
2023-03-28T15:59:40.699Z,2.6
2023-03-28T16:00:49.115Z,2.6
2023-03-28T16:01:57.922Z,2.6
2023-03-28T16:03:06.575Z,1.5
2023-03-28T16:04:15.075Z,1.5
2023-03-28T16:05:23.422Z,1.5
2023-03-28T16:06:33.863Z,1.9
2023-03-28T16:07:40.545Z,1.9
2023-03-28T16:08:48.960Z,1.9
2023-03-28T16:09:57.642Z,1.5
2023-03-28T16:11:06.447Z,1.5
2023-03-28T16:12:14.915Z,1.5
2023-03-28T16:13:23.550Z,2.6
2023-03-28T16:14:31.950Z,2.6
2023-03-28T16:15:40.546Z,2.6
2023-03-28T16:16:56.339Z,1.8
2023-03-28T16:18:06.375Z,1.8
2023-03-28T16:19:14.792Z,1.8
2023-03-28T16:20:23.455Z,3.7